Time;durP1;ratioP1;P1;durP2;ratioP2;P2;SDS_P1;SDS_P2;PMS_P1;PMS_P2;Temp;Humidity;BMP_temperature;BMP_pressure;BME280_temperature;BME280_humidity;BME280_pressure;Samples;Min_cycle;Max_cycle;Signal;HPM_P1;HPM_P2
2022/01/02 04:50:39;;;;;;;28.83;10.00;;;11.00;99.90;;;;;;4919761;29;20136;-48
2022/01/02 04:53:05;;;;;;;23.17;9.13;;;11.00;99.90;;;;;;4943463;29;20055;-48
2022/01/02 04:55:31;;;;;;;22.67;9.15;;;11.00;99.90;;;;;;4942919;29;20043;-47
2022/01/02 04:57:57;;;;;;;19.42;8.40;;;11.10;99.90;;;;;;4942744;29;20062;-48
2022/01/02 05:00:23;;;;;;;18.33;7.93;;;11.10;99.90;;;;;;4942571;29;20047;-49
2022/01/02 05:02:52;;;;;;;19.75;8.38;;;11.10;99.90;;;;;;4943717;28;20059;-48
2022/01/02 05:05:18;;;;;;;16.95;7.35;;;11.20;99.90;;;;;;4942480;29;20507;-47
2022/01/02 05:07:44;;;;;;;19.20;7.28;;;11.20;99.90;;;;;;4943186;29;20055;-49
2022/01/02 05:10:11;;;;;;;21.33;7.55;;;11.20;99.90;;;;;;4943450;28;20576;-47
2022/01/02 05:12:36;;;;;;;17.15;7.43;;;11.20;99.90;;;;;;4926366;29;20051;-49
2022/01/02 05:15:03;;;;;;;21.70;8.95;;;11.20;99.90;;;;;;4942882;29;20058;-49
2022/01/02 05:17:29;;;;;;;18.52;7.05;;;11.20;99.90;;;;;;4925091;29;20059;-48
2022/01/02 05:19:55;;;;;;;15.43;7.45;;;11.20;99.90;;;;;;4942889;28;20094;-48
2022/01/02 05:22:21;;;;;;;21.15;7.20;;;11.20;99.90;;;;;;4941306;29;20701;-48
2022/01/02 05:24:47;;;;;;;18.77;7.55;;;11.20;99.90;;;;;;4943084;29;20071;-49
2022/01/02 05:27:13;;;;;;;21.75;7.90;;;11.20;99.90;;;;;;4941401;29;20051;-48
2022/01/02 05:29:39;;;;;;;21.90;7.10;;;11.20;99.90;;;;;;4946831;28;20066;-48
2022/01/02 05:32:05;;;;;;;17.83;6.97;;;11.30;99.90;;;;;;4931551;29;20121;-48
2022/01/02 05:34:30;;;;;;;19.55;7.25;;;11.30;99.90;;;;;;4951792;28;20113;-49
2022/01/02 05:36:56;;;;;;;16.60;7.10;;;11.30;99.90;;;;;;4946959;29;20058;-48
2022/01/02 05:39:25;;;;;;;24.13;7.18;;;11.20;99.90;;;;;;4948641;29;20550;-50
2022/01/02 05:41:52;;;;;;;19.98;6.72;;;11.20;99.90;;;;;;4932508;29;20065;-50
2022/01/02 05:44:19;;;;;;;17.48;6.53;;;11.20;99.90;;;;;;4930776;29;20150;-48
2022/01/02 05:46:45;;;;;;;20.30;7.18;;;11.30;99.90;;;;;;4946629;28;20062;-48
2022/01/02 05:49:11;;;;;;;16.65;6.85;;;11.20;99.90;;;;;;4928727;29;20052;-51
2022/01/02 05:51:37;;;;;;;21.60;7.40;;;11.20;99.90;;;;;;4946781;28;20166;-48
2022/01/02 05:54:04;;;;;;;16.63;6.75;;;11.20;99.90;;;;;;4946903;28;20043;-47
2022/01/02 05:56:30;;;;;;;18.45;8.05;;;11.30;99.90;;;;;;4945549;28;20193;-48
2022/01/02 05:58:56;;;;;;;14.45;6.72;;;11.30;99.90;;;;;;4928013;29;20063;-50
2022/01/02 06:01:22;;;;;;;18.15;6.88;;;11.20;99.90;;;;;;4947089;28;20077;-48
2022/01/02 06:03:48;;;;;;;19.80;7.00;;;11.20;99.90;;;;;;4938435;28;20366;-47
2022/01/02 06:06:14;;;;;;;18.00;6.93;;;11.20;99.90;;;;;;4945284;28;20050;-47
2022/01/02 06:08:39;;;;;;;18.15;7.85;;;11.20;99.90;;;;;;4945590;28;20039;-47
2022/01/02 06:11:05;;;;;;;22.05;8.15;;;11.20;99.90;;;;;;4945599;28;20058;-48
2022/01/02 06:13:32;;;;;;;21.52;7.60;;;11.30;99.90;;;;;;4929298;29;20117;-51
2022/01/02 06:15:58;;;;;;;19.20;8.02;;;11.20;99.90;;;;;;4948161;28;20106;-50
2022/01/02 06:18:23;;;;;;;16.20;7.93;;;11.30;99.90;;;;;;4948253;28;20051;-47
2022/01/02 06:20:49;;;;;;;18.38;7.03;;;11.20;99.90;;;;;;4943567;28;20075;-47
2022/01/02 06:23:18;;;;;;;16.80;6.82;;;11.20;99.90;;;;;;4944039;29;20578;-48
2022/01/02 06:25:45;;;;;;;18.10;8.05;;;11.30;99.90;;;;;;4946010;29;20051;-49
2022/01/02 06:28:13;;;;;;;20.98;7.50;;;11.30;99.90;;;;;;4945801;29;20051;-48
2022/01/02 06:30:38;;;;;;;18.63;7.18;;;11.20;99.90;;;;;;4927118;29;20055;-48
2022/01/02 06:33:04;;;;;;;14.23;7.00;;;11.30;99.90;;;;;;4944159;28;20054;-48
2022/01/02 06:35:34;;;;;;;19.55;7.47;;;11.30;99.90;;;;;;4950221;28;20573;-49
2022/01/02 06:38:09;;;;;;;15.15;6.63;;;11.40;99.90;;;;;;4927282;29;20055;-51
2022/01/02 06:40:35;;;;;;;16.85;6.03;;;11.30;99.90;;;;;;4911986;29;20113;-48
2022/01/02 06:43:01;;;;;;;19.35;6.80;;;11.40;99.90;;;;;;4933599;29;20055;-49
2022/01/02 06:45:29;;;;;;;14.98;6.28;;;11.40;99.90;;;;;;4946368;29;20039;-49
2022/01/02 06:47:55;;;;;;;17.30;5.95;;;11.30;99.90;;;;;;4928522;29;20058;-47
2022/01/02 06:50:21;;;;;;;12.55;6.03;;;11.30;99.90;;;;;;4946257;29;20051;-48
2022/01/02 06:52:48;;;;;;;15.85;6.28;;;11.30;99.90;;;;;;4944550;29;20083;-48
2022/01/02 06:55:13;;;;;;;16.05;6.72;;;11.40;99.90;;;;;;4939856;29;20409;-48
2022/01/02 06:57:39;;;;;;;15.10;5.43;;;11.50;99.90;;;;;;4942171;29;20757;-48
2022/01/02 07:00:06;;;;;;;13.65;5.82;;;11.50;99.90;;;;;;4944930;29;20094;-49
2022/01/02 07:02:33;;;;;;;15.23;6.15;;;11.50;99.90;;;;;;4932201;29;20055;-49
2022/01/02 07:05:03;;;;;;;14.55;5.95;;;11.50;99.90;;;;;;4945242;29;20510;-48
2022/01/02 07:07:28;;;;;;;15.73;6.53;;;11.50;99.90;;;;;;4945847;28;20075;-50
2022/01/02 07:09:57;;;;;;;15.15;5.55;;;11.50;99.90;;;;;;4945333;28;20147;-47
2022/01/02 07:12:23;;;;;;;10.85;5.78;;;11.50;99.90;;;;;;4944921;29;20051;-48
2022/01/02 07:14:52;;;;;;;18.50;5.78;;;11.50;99.90;;;;;;4944413;29;20061;-48
2022/01/02 07:17:17;;;;;;;12.48;5.47;;;11.40;99.90;;;;;;4945068;29;20070;-48
2022/01/02 07:19:43;;;;;;;17.70;6.65;;;11.40;99.90;;;;;;4945353;29;20051;-48
2022/01/02 07:22:09;;;;;;;11.27;5.68;;;11.50;99.90;;;;;;4921199;29;20190;-48
2022/01/02 07:24:35;;;;;;;12.82;5.80;;;11.50;99.90;;;;;;4929827;29;20055;-47
2022/01/02 07:27:00;;;;;;;9.27;5.30;;;11.50;99.90;;;;;;4940376;29;20051;-47
2022/01/02 07:29:26;;;;;;;12.32;6.00;;;11.50;99.90;;;;;;4928273;29;20059;-47
2022/01/02 07:31:52;;;;;;;13.50;5.95;;;11.40;99.90;;;;;;4944768;28;20504;-49
2022/01/02 07:34:18;;;;;;;15.20;6.18;;;11.50;99.90;;;;;;4947726;28;20047;-48
2022/01/02 07:36:44;;;;;;;15.85;6.43;;;11.40;99.90;;;;;;4943891;28;20051;-47
2022/01/02 07:39:12;;;;;;;15.85;6.28;;;11.30;99.90;;;;;;4944654;28;20414;-48
2022/01/02 07:41:38;;;;;;;13.85;6.38;;;11.30;99.90;;;;;;4944142;28;20047;-47
2022/01/02 07:44:03;;;;;;;11.98;6.25;;;11.30;99.90;;;;;;4943247;28;20047;-48
2022/01/02 07:46:32;;;;;;;15.20;5.88;;;11.30;99.90;;;;;;4943192;28;20772;-48
2022/01/02 07:48:58;;;;;;;13.05;6.18;;;11.30;99.90;;;;;;4945349;28;20053;-48
2022/01/02 07:51:24;;;;;;;13.93;6.07;;;11.30;99.90;;;;;;4945220;28;20506;-47
2022/01/02 07:53:50;;;;;;;13.70;6.55;;;11.30;99.90;;;;;;4943469;28;20097;-48
2022/01/02 07:56:16;;;;;;;12.63;6.60;;;11.30;99.90;;;;;;4942901;28;20051;-47
2022/01/02 07:58:41;;;;;;;14.68;6.28;;;11.20;99.90;;;;;;4944349;28;20055;-47
2022/01/02 08:01:07;;;;;;;15.60;6.70;;;11.30;99.90;;;;;;4943892;28;20479;-52
2022/01/02 08:03:33;;;;;;;12.30;6.50;;;11.20;99.90;;;;;;4944830;28;20073;-51
2022/01/02 08:05:59;;;;;;;10.73;5.85;;;11.20;99.90;;;;;;4942457;28;20047;-47
2022/01/02 08:08:24;;;;;;;13.57;7.68;;;11.20;99.90;;;;;;4945540;28;20055;-49
2022/01/02 08:10:50;;;;;;;13.65;6.82;;;11.20;99.90;;;;;;4945461;28;20126;-49
2022/01/02 08:13:16;;;;;;;15.38;7.60;;;11.20;99.90;;;;;;4930543;29;20879;-49
2022/01/02 08:15:43;;;;;;;14.45;7.15;;;11.10;99.90;;;;;;4943818;28;20504;-51
2022/01/02 08:18:13;;;;;;;11.52;7.25;;;11.10;99.90;;;;;;4927441;29;20186;-49
2022/01/02 08:20:40;;;;;;;11.55;6.70;;;11.10;99.90;;;;;;4945165;29;20442;-49
2022/01/02 08:23:06;;;;;;;12.48;7.10;;;11.10;99.90;;;;;;4944933;29;20122;-50
2022/01/02 08:25:31;;;;;;;15.55;7.50;;;11.10;99.90;;;;;;4943942;29;20057;-48
2022/01/02 08:27:57;;;;;;;15.60;7.22;;;11.10;99.90;;;;;;4943700;29;20070;-48
2022/01/02 08:30:23;;;;;;;13.23;8.40;;;11.10;99.90;;;;;;4930612;29;20134;-49
2022/01/02 08:32:49;;;;;;;16.00;7.82;;;11.10;99.90;;;;;;4943235;29;20099;-47
2022/01/02 08:35:14;;;;;;;16.55;7.93;;;11.00;99.90;;;;;;4946499;28;20051;-47
2022/01/02 08:37:40;;;;;;;11.35;7.68;;;11.00;99.90;;;;;;4942316;28;20051;-48
2022/01/02 08:40:07;;;;;;;18.20;8.13;;;10.90;99.90;;;;;;4943789;28;20055;-48
2022/01/02 08:42:33;;;;;;;14.20;7.53;;;11.00;99.90;;;;;;4942973;28;20121;-49
2022/01/02 08:44:59;;;;;;;12.02;6.88;;;11.00;99.90;;;;;;4944142;29;20066;-49
2022/01/02 08:47:24;;;;;;;13.57;6.65;;;11.00;99.90;;;;;;4943323;29;20469;-50
2022/01/02 08:49:50;;;;;;;12.55;7.15;;;11.10;99.90;;;;;;4924919;29;20066;-48
2022/01/02 08:52:18;;;;;;;16.92;7.35;;;11.10;99.90;;;;;;4940167;28;20059;-48
2022/01/02 08:54:43;;;;;;;13.68;7.55;;;11.00;99.90;;;;;;4939480;28;20414;-47
2022/01/02 08:57:10;;;;;;;12.13;7.43;;;11.00;99.90;;;;;;4946832;28;20058;-50
2022/01/02 08:59:36;;;;;;;11.05;7.45;;;11.00;99.90;;;;;;4947089;28;20089;-48
2022/01/02 09:02:02;;;;;;;10.73;6.60;;;11.00;99.90;;;;;;4943972;28;20123;-48
2022/01/02 09:04:28;;;;;;;15.27;8.05;;;11.00;99.90;;;;;;4939842;28;20051;-48
2022/01/02 09:06:54;;;;;;;14.15;7.28;;;10.90;99.90;;;;;;4939122;28;20623;-49
2022/01/02 09:09:19;;;;;;;16.38;7.05;;;10.90;99.90;;;;;;4947280;28;20308;-48
2022/01/02 09:11:46;;;;;;;12.15;6.82;;;10.90;99.90;;;;;;4947592;28;20133;-49
2022/01/02 09:14:11;;;;;;;17.67;7.22;;;11.00;99.90;;;;;;4930369;28;20067;-48
2022/01/02 09:16:39;;;;;;;11.95;6.72;;;11.00;99.90;;;;;;4949638;28;20486;-50
2022/01/02 09:19:06;;;;;;;12.32;7.68;;;11.00;99.90;;;;;;4947984;29;20055;-51
2022/01/02 09:21:31;;;;;;;12.07;6.93;;;10.90;99.90;;;;;;4947844;29;20050;-47
2022/01/02 09:23:57;;;;;;;13.00;7.18;;;10.90;99.90;;;;;;4948232;29;20047;-48
2022/01/02 09:26:23;;;;;;;12.45;6.93;;;10.90;99.90;;;;;;4948464;28;20122;-50
2022/01/02 09:28:50;;;;;;;12.00;6.80;;;11.00;99.90;;;;;;4950378;29;20059;-48
2022/01/02 09:31:16;;;;;;;15.10;6.40;;;11.00;99.90;;;;;;4941514;29;20051;-51
2022/01/02 09:33:41;;;;;;;11.38;6.80;;;11.00;99.90;;;;;;4948176;29;20106;-50
2022/01/02 09:36:07;;;;;;;9.63;6.50;;;11.00;99.90;;;;;;4929223;29;20530;-51
2022/01/02 09:38:33;;;;;;;12.65;7.00;;;11.10;99.90;;;;;;4947901;29;20047;-48
2022/01/02 09:41:00;;;;;;;12.25;6.70;;;11.10;99.90;;;;;;4930207;29;20059;-48
2022/01/02 09:43:26;;;;;;;10.18;7.38;;;11.10;99.90;;;;;;4947950;29;20431;-48
2022/01/02 09:45:52;;;;;;;12.43;7.47;;;11.10;99.90;;;;;;4929131;29;20163;-49
2022/01/02 09:48:18;;;;;;;10.63;7.05;;;11.20;99.90;;;;;;4946372;29;20153;-49
2022/01/02 09:50:47;;;;;;;12.45;6.97;;;11.20;99.90;;;;;;4945880;29;20054;-48
2022/01/02 09:53:13;;;;;;;14.68;8.13;;;11.20;99.90;;;;;;4945566;29;20061;-48
2022/01/02 09:55:40;;;;;;;17.27;7.57;;;11.20;99.90;;;;;;4945174;28;20051;-50
2022/01/02 09:58:11;;;;;;;13.73;8.23;;;11.20;99.90;;;;;;4916001;29;20067;-51
2022/01/02 10:00:38;;;;;;;17.85;7.20;;;11.20;99.90;;;;;;4938364;29;20051;-48
2022/01/02 10:03:09;;;;;;;11.38;7.30;;;11.20;99.90;;;;;;4947137;29;20486;-48
2022/01/02 10:05:56;;;;;;;14.43;8.00;;;11.20;99.90;;;;;;4929459;29;20513;-49
2022/01/02 10:08:31;;;;;;;14.35;7.45;;;11.20;99.90;;;;;;4943492;28;20070;-48
2022/01/02 10:10:59;;;;;;;12.70;7.00;;;11.20;99.90;;;;;;4927483;29;20055;-48
2022/01/02 10:13:50;;;;;;;17.30;7.78;;;11.20;99.90;;;;;;4927354;29;20157;-49
2022/01/02 10:16:33;;;;;;;12.77;7.22;;;11.20;99.90;;;;;;4945679;29;20410;-48
2022/01/02 10:19:00;;;;;;;;;;;11.20;99.90;;;;;;4934802;29;20060;-47
2022/01/02 10:21:28;;;;;;;14.82;7.50;;;11.20;99.90;;;;;;4917354;29;19930;-48
2022/01/02 10:24:10;;;;;;;15.73;7.50;;;11.10;99.90;;;;;;4945578;28;20047;-47
2022/01/02 10:26:37;;;;;;;13.10;7.40;;;11.10;99.90;;;;;;4928376;29;20051;-48
2022/01/02 10:29:15;;;;;;;17.75;8.40;;;11.10;99.90;;;;;;4947149;28;20406;-48
2022/01/02 10:31:41;;;;;;;15.80;6.65;;;11.10;99.90;;;;;;4938596;28;20490;-48
2022/01/02 10:34:14;;;;;;;12.80;6.97;;;11.20;99.90;;;;;;4927538;29;20050;-48
2022/01/02 10:36:40;;;;;;;14.48;7.05;;;11.20;99.90;;;;;;4945050;28;20460;-50
2022/01/02 10:39:15;;;;;;;16.88;7.20;;;11.10;99.90;;;;;;4946526;28;20055;-48
2022/01/02 10:41:45;;;;;;;14.55;7.50;;;11.10;99.90;;;;;;4927406;28;20051;-47
2022/01/02 10:44:30;;;;;;;11.77;6.97;;;11.10;99.90;;;;;;4926589;29;20051;-47
2022/01/02 10:47:05;;;;;;;16.13;7.32;;;11.10;99.90;;;;;;4948036;28;20086;-49
2022/01/02 10:49:53;;;;;;;14.90;6.95;;;11.10;99.90;;;;;;4930910;29;20966;-50
2022/01/02 10:52:39;;;;;;;17.88;7.55;;;11.10;99.90;;;;;;4942433;28;20147;-50
2022/01/02 10:55:12;;;;;;;17.58;7.28;;;11.10;99.90;;;;;;4944222;28;20094;-50
2022/01/02 10:57:42;;;;;;;18.30;7.97;;;11.10;99.90;;;;;;4927394;29;20055;-48
2022/01/02 11:00:09;;;;;;;14.60;6.65;;;11.20;99.90;;;;;;4925593;29;20055;-51
2022/01/02 11:02:35;;;;;;;16.77;6.93;;;11.20;99.90;;;;;;4923020;28;20059;-48
2022/01/02 11:05:07;;;;;;;19.20;8.27;;;11.20;99.90;;;;;;4942675;28;20047;-49
2022/01/02 11:07:43;;;;;;;16.33;7.65;;;11.20;99.90;;;;;;4925578;28;20079;-47
2022/01/02 11:10:14;;;;;;;13.45;7.25;;;11.20;99.90;;;;;;4946016;28;20418;-48
2022/01/02 11:12:41;;;;;;;16.15;6.40;;;11.20;99.90;;;;;;4925410;28;20050;-50
2022/01/02 11:15:09;;;;;;;17.02;7.10;;;11.10;99.90;;;;;;4943540;28;20050;-51
2022/01/02 11:17:36;;;;;;;12.73;6.60;;;11.10;99.90;;;;;;4943673;28;20087;-48
2022/01/02 11:20:14;;;;;;;17.92;6.80;;;11.10;99.90;;;;;;4930874;28;20059;-48
2022/01/02 11:22:45;;;;;;;11.13;5.50;;;11.10;99.90;;;;;;4923935;29;20097;-49
2022/01/02 11:25:20;;;;;;;21.42;6.97;;;11.10;99.90;;;;;;4941100;29;20545;-48
2022/01/02 11:28:03;;;;;;;13.50;6.30;;;11.10;99.90;;;;;;4948021;28;20069;-49
2022/01/02 11:30:35;;;;;;;19.67;7.10;;;11.10;99.90;;;;;;4942867;29;20099;-48
2022/01/02 11:33:02;;;;;;;16.95;6.80;;;11.10;99.90;;;;;;4942917;29;20070;-47
2022/01/02 11:35:31;;;;;;;15.38;5.35;;;11.10;99.90;;;;;;4943016;28;20469;-48
2022/01/02 11:38:02;;;;;;;15.38;6.22;;;11.10;99.90;;;;;;4926640;29;20110;-48
2022/01/02 11:40:51;;;;;;;20.95;5.60;;;11.10;99.90;;;;;;4943514;29;20055;-49
2022/01/02 11:43:35;;;;;;;13.43;5.63;;;11.10;99.90;;;;;;4941285;29;20083;-49
2022/01/02 11:46:13;;;;;;;16.35;5.60;;;11.00;99.90;;;;;;4942613;29;20039;-47
2022/01/02 11:48:39;;;;;;;19.83;6.43;;;11.00;99.90;;;;;;4941057;29;20061;-48
2022/01/02 11:51:05;;;;;;;16.50;5.15;;;10.90;99.90;;;;;;4905729;29;1094831;-50
2022/01/02 11:53:35;;;;;;;21.00;6.25;;;10.90;99.90;;;;;;4926600;29;20059;-50
2022/01/02 11:56:02;;;;;;;20.40;5.30;;;10.90;99.90;;;;;;4945069;29;20066;-49
2022/01/02 11:58:46;;;;;;;19.65;5.25;;;10.90;99.90;;;;;;4917116;29;20509;-48
2022/01/02 12:01:48;;;;;;;19.27;5.30;;;10.90;99.90;;;;;;4945856;29;20105;-48
2022/01/02 12:04:15;;;;;;;21.35;5.63;;;10.90;99.90;;;;;;4919866;29;20060;-51
2022/01/02 12:06:42;;;;;;;18.85;6.10;;;10.90;99.90;;;;;;4942654;28;20573;-51
2022/01/02 12:09:32;;;;;;;23.52;5.82;;;11.00;99.90;;;;;;4947119;28;20759;-48
2022/01/02 12:12:03;;;;;;;16.77;5.00;;;11.00;99.90;;;;;;4941871;29;20090;-49
2022/01/02 12:14:29;;;;;;;23.60;6.20;;;11.10;99.90;;;;;;4944128;29;20055;-49
2022/01/02 12:17:00;;;;;;;17.95;5.40;;;11.20;99.90;;;;;;4926903;29;20055;-50
2022/01/02 12:19:27;;;;;;;18.35;5.07;;;11.20;99.90;;;;;;4944154;28;20581;-50
2022/01/02 12:22:41;;;;;;;17.58;6.05;;;11.20;99.90;;;;;;4921739;29;20058;-48
2022/01/02 12:25:22;;;;;;;18.63;6.30;;;11.20;99.90;;;;;;4831189;29;20077;-50
2022/01/02 12:27:58;;;;;;;23.05;9.27;;;11.20;99.90;;;;;;4874661;29;20116;-48
2022/01/02 12:30:24;;;;;;;20.30;5.13;;;11.20;99.90;;;;;;4854190;29;20057;-47
2022/01/02 12:32:50;;;;;;;25.30;6.15;;;11.20;99.90;;;;;;4861943;29;20060;-48
2022/01/02 12:35:16;;;;;;;24.95;5.72;;;11.30;99.90;;;;;;4853911;29;20048;-48
2022/01/02 12:37:42;;;;;;;22.30;6.05;;;11.30;99.90;;;;;;4859192;29;20057;-49
2022/01/02 12:40:16;;;;;;;18.25;4.32;;;11.30;99.90;;;;;;4854797;29;20476;-48
2022/01/02 12:42:42;;;;;;;18.25;4.40;;;11.30;99.90;;;;;;4848219;29;20052;-47
2022/01/02 12:45:08;;;;;;;22.85;4.32;;;11.30;99.90;;;;;;4859085;29;20120;-47
2022/01/02 12:47:34;;;;;;;21.60;4.93;;;11.30;99.90;;;;;;4874086;29;20512;-49
2022/01/02 12:50:00;;;;;;;13.73;3.72;;;11.30;99.90;;;;;;4866346;29;20050;-49
2022/01/02 12:52:26;;;;;;;14.18;4.70;;;11.30;99.90;;;;;;4873731;29;20226;-47
2022/01/02 12:54:54;;;;;;;14.48;3.70;;;11.30;99.90;;;;;;4847567;29;20666;-48
2022/01/02 12:57:22;;;;;;;20.38;3.95;;;11.20;99.90;;;;;;4860567;29;20061;-49
2022/01/02 12:59:55;;;;;;;20.80;4.45;;;11.20;99.90;;;;;;4931348;29;20656;-50
2022/01/02 13:02:25;;;;;;;17.02;3.83;;;11.20;99.90;;;;;;4944315;29;20051;-47
2022/01/02 13:04:52;;;;;;;14.55;3.90;;;11.20;99.90;;;;;;4943411;29;20442;-48
2022/01/02 13:07:25;;;;;;;14.65;4.00;;;11.20;99.90;;;;;;4942473;28;20410;-48
2022/01/02 13:09:53;;;;;;;15.57;3.63;;;11.20;99.90;;;;;;4924675;29;20109;-48
2022/01/02 13:12:22;;;;;;;15.88;3.30;;;11.20;99.90;;;;;;4943854;29;20059;-47
2022/01/02 13:14:53;;;;;;;14.98;3.40;;;11.20;99.90;;;;;;4943106;29;20544;-48
2022/01/02 13:17:29;;;;;;;14.57;3.45;;;11.20;99.90;;;;;;4943564;28;20493;-49
2022/01/02 13:20:00;;;;;;;20.75;3.95;;;11.10;99.90;;;;;;4930837;29;20051;-51
2022/01/02 13:22:30;;;;;;;19.15;3.13;;;11.00;99.90;;;;;;4944805;28;20043;-49
2022/01/02 13:24:56;;;;;;;11.80;2.60;;;10.90;99.90;;;;;;4943375;29;20051;-49
2022/01/02 13:27:26;;;;;;;14.65;3.00;;;10.90;99.90;;;;;;4923697;29;20158;-47
2022/01/02 13:30:00;;;;;;;14.90;3.10;;;10.80;99.90;;;;;;4942375;29;20054;-48
2022/01/02 13:32:30;;;;;;;13.88;2.90;;;10.70;99.90;;;;;;4943566;29;20055;-48
2022/01/02 13:35:01;;;;;;;17.92;3.72;;;10.60;99.90;;;;;;4936204;28;20047;-47
2022/01/02 13:37:36;;;;;;;14.45;3.35;;;10.60;99.90;;;;;;4944337;29;20059;-47
2022/01/02 13:40:06;;;;;;;12.85;2.78;;;10.50;99.90;;;;;;4944258;29;20085;-46
2022/01/02 13:42:43;;;;;;;16.95;3.88;;;10.50;99.90;;;;;;4945955;28;20054;-47
2022/01/02 13:45:11;;;;;;;14.90;2.67;;;10.40;99.90;;;;;;4945927;29;20055;-47
2022/01/02 13:47:37;;;;;;;18.52;3.47;;;10.30;99.90;;;;;;4945804;29;20485;-47
2022/01/02 13:50:04;;;;;;;14.75;2.78;;;10.20;99.90;;;;;;4946234;28;20058;-47
2022/01/02 13:52:30;;;;;;;14.18;2.65;;;10.30;99.90;;;;;;4946928;28;20067;-49
2022/01/02 13:55:10;;;;;;;10.05;2.75;;;10.30;99.90;;;;;;4928809;29;20070;-47
2022/01/02 13:57:35;;;;;;;14.35;3.92;;;10.20;99.90;;;;;;4937035;29;20047;-48
2022/01/02 14:00:15;;;;;;;12.70;2.72;;;10.20;99.90;;;;;;4946102;29;20055;-47
2022/01/02 14:02:41;;;;;;;13.57;2.90;;;10.10;99.90;;;;;;4947109;29;20414;-50
2022/01/02 14:05:07;;;;;;;11.05;2.38;;;10.10;99.90;;;;;;4926449;29;20059;-49
2022/01/02 14:07:34;;;;;;;17.73;2.55;;;10.10;99.90;;;;;;4928023;29;20130;-48
2022/01/02 14:10:03;;;;;;;11.50;2.83;;;10.10;99.90;;;;;;4945484;28;20051;-49
2022/01/02 14:12:33;;;;;;;19.60;4.25;;;10.00;99.90;;;;;;4945233;29;20059;-47
2022/01/02 14:15:26;;;;;;;12.48;3.30;;;10.00;99.90;;;;;;4928262;29;20101;-47
2022/01/02 14:17:52;;;;;;;15.38;3.00;;;9.90;99.90;;;;;;4928367;29;20051;-48
2022/01/02 14:20:21;;;;;;;11.55;2.67;;;9.90;99.90;;;;;;4930545;28;20056;-49
2022/01/02 14:22:48;;;;;;;14.10;3.05;;;9.90;99.90;;;;;;4940126;29;20047;-47
2022/01/02 14:25:17;;;;;;;14.48;3.10;;;9.80;99.90;;;;;;4943045;29;20043;-47
2022/01/02 14:27:51;;;;;;;13.23;3.05;;;9.80;99.90;;;;;;4927842;29;21357;-48
2022/01/02 14:30:19;;;;;;;11.50;2.42;;;9.80;99.90;;;;;;4946814;28;20236;-50
2022/01/02 14:32:45;;;;;;;14.75;3.08;;;9.80;99.90;;;;;;4936318;28;20062;-49
2022/01/02 14:35:14;;;;;;;15.93;3.80;;;9.90;99.90;;;;;;4930829;29;20051;-48
2022/01/02 14:37:41;;;;;;;13.75;3.08;;;9.80;99.90;;;;;;4948346;28;20465;-49
2022/01/02 14:40:08;;;;;;;15.88;4.03;;;9.90;99.90;;;;;;4946472;28;20094;-50
2022/01/02 14:42:37;;;;;;;14.25;3.03;;;10.00;99.90;;;;;;4927809;29;20062;-49
2022/01/02 14:45:04;;;;;;;16.45;4.07;;;10.00;99.90;;;;;;4927429;28;20150;-50
2022/01/02 14:47:31;;;;;;;14.93;3.83;;;10.00;99.90;;;;;;4944608;28;20164;-50
2022/01/02 14:49:57;;;;;;;16.85;3.03;;;10.00;99.90;;;;;;4943631;28;20052;-48
2022/01/02 14:52:24;;;;;;;18.85;3.35;;;9.90;99.90;;;;;;4927414;28;20069;-50
2022/01/02 14:54:49;;;;;;;9.57;2.55;;;9.90;99.90;;;;;;4944951;28;20066;-50
2022/01/02 14:57:15;;;;;;;12.57;2.97;;;9.80;99.90;;;;;;4927234;29;20051;-47
2022/01/02 14:59:43;;;;;;;16.20;2.97;;;9.80;99.90;;;;;;4945739;28;20509;-47
2022/01/02 15:02:09;;;;;;;17.52;3.72;;;9.80;99.90;;;;;;4928769;29;20062;-47
2022/01/02 15:04:34;;;;;;;13.57;3.70;;;9.80;99.90;;;;;;4926103;28;20477;-47
2022/01/02 15:07:00;;;;;;;16.77;3.55;;;9.70;99.90;;;;;;4945545;28;20517;-48
2022/01/02 15:09:26;;;;;;;14.05;3.08;;;9.70;99.90;;;;;;4923269;28;20059;-48
2022/01/02 15:11:52;;;;;;;17.63;3.17;;;9.70;99.90;;;;;;4936973;28;20093;-47
2022/01/02 15:14:18;;;;;;;17.60;3.90;;;9.70;99.90;;;;;;4945380;28;20518;-47
2022/01/02 15:16:48;;;;;;;14.95;3.90;;;9.60;99.90;;;;;;4945033;28;20055;-49
2022/01/02 15:19:16;;;;;;;16.92;3.08;;;9.60;99.90;;;;;;4943526;28;20574;-47
2022/01/02 15:21:42;;;;;;;10.68;2.95;;;9.70;99.90;;;;;;4941083;29;20080;-47
2022/01/02 15:24:07;;;;;;;20.85;3.85;;;9.60;99.90;;;;;;4944050;29;20070;-48
2022/01/02 15:26:33;;;;;;;14.63;3.67;;;9.60;99.90;;;;;;4944130;29;20486;-50
2022/01/02 15:28:59;;;;;;;18.35;3.85;;;9.60;99.90;;;;;;4944563;28;20561;-47
2022/01/02 15:31:25;;;;;;;19.58;4.90;;;9.60;99.90;;;;;;4944260;29;20502;-47
2022/01/02 15:33:52;;;;;;;13.48;3.55;;;9.50;99.90;;;;;;4926869;29;20058;-47
2022/01/02 15:36:17;;;;;;;16.45;3.92;;;9.50;99.90;;;;;;4927445;29;20187;-47
2022/01/02 15:38:44;;;;;;;14.27;3.10;;;9.40;99.90;;;;;;4926985;29;20070;-48
2022/01/02 16:48:47;;;;;;;17.20;4.57;;;8.80;99.90;;;;;;4933171;29;20062;-47
2022/01/02 16:51:14;;;;;;;18.50;6.10;;;8.80;99.90;;;;;;4935721;28;20047;-47
2022/01/02 16:53:40;;;;;;;20.75;6.10;;;8.80;99.90;;;;;;4940680;28;20052;-47
2022/01/02 16:56:06;;;;;;;17.55;10.98;;;8.70;99.90;;;;;;4942595;28;20051;-47
2022/01/02 16:58:32;;;;;;;11.93;5.20;;;8.80;99.90;;;;;;4942834;28;20047;-48
2022/01/02 17:00:58;;;;;;;15.38;5.63;;;8.70;99.90;;;;;;4942864;28;20110;-47
2022/01/02 17:03:24;;;;;;;16.25;4.55;;;8.80;99.90;;;;;;4943665;28;20066;-48
2022/01/02 17:05:51;;;;;;;21.27;3.97;;;8.70;99.90;;;;;;4942575;28;20043;-48
2022/01/02 17:08:17;;;;;;;14.48;4.03;;;8.80;99.90;;;;;;4944919;28;20051;-49
2022/01/02 17:10:44;;;;;;;14.90;3.08;;;8.70;99.90;;;;;;4946871;28;20054;-50
2022/01/02 17:13:09;;;;;;;10.38;2.83;;;8.70;99.90;;;;;;4943164;28;20872;-48
2022/01/02 17:15:35;;;;;;;9.20;3.13;;;8.70;99.90;;;;;;4943362;28;20071;-48
2022/01/02 17:18:02;;;;;;;14.68;3.22;;;8.70;99.90;;;;;;4927251;29;20107;-48
2022/01/02 17:20:30;;;;;;;15.40;3.55;;;8.70;99.90;;;;;;4948814;29;20190;-48
2022/01/02 17:22:56;;;;;;;11.15;2.30;;;8.70;99.90;;;;;;4933876;29;20134;-48
2022/01/02 17:25:23;;;;;;;15.38;2.67;;;8.70;99.90;;;;;;4946898;28;20087;-47
2022/01/02 17:27:49;;;;;;;13.75;3.03;;;8.70;99.90;;;;;;4947088;28;20051;-48
2022/01/02 17:30:17;;;;;;;10.40;3.00;;;8.70;99.90;;;;;;4925223;29;20047;-47
2022/01/02 17:32:43;;;;;;;14.88;3.00;;;8.70;99.90;;;;;;4947544;29;20039;-47
2022/01/02 17:35:11;;;;;;;19.20;4.25;;;8.70;99.90;;;;;;4946576;28;20529;-47
2022/01/02 17:37:41;;;;;;;11.77;3.47;;;8.70;99.90;;;;;;4943397;29;20051;-47
2022/01/02 17:40:09;;;;;;;17.73;4.03;;;8.70;99.90;;;;;;4941299;29;20058;-47
2022/01/02 17:42:34;;;;;;;14.77;3.80;;;8.80;99.90;;;;;;4916920;29;20056;-49
2022/01/02 17:45:00;;;;;;;17.85;4.80;;;8.80;99.90;;;;;;4939649;29;20051;-49
2022/01/02 17:47:26;;;;;;;11.27;3.72;;;8.80;99.90;;;;;;4945856;28;20062;-47
2022/01/02 17:49:52;;;;;;;21.05;3.85;;;8.80;99.90;;;;;;4939681;29;20051;-48
2022/01/02 17:52:18;;;;;;;12.90;3.35;;;8.80;99.90;;;;;;4946125;28;20592;-48
2022/01/02 17:54:44;;;;;;;9.93;2.63;;;8.80;99.90;;;;;;4946203;29;20551;-48
2022/01/02 17:57:10;;;;;;;20.13;3.70;;;8.80;99.90;;;;;;4938838;28;20055;-48
2022/01/02 17:59:36;;;;;;;10.02;3.38;;;8.80;99.90;;;;;;4946473;29;20130;-48
2022/01/02 18:02:04;;;;;;;10.77;3.50;;;8.80;99.90;;;;;;4945565;29;20415;-49
2022/01/02 18:04:30;;;;;;;14.93;3.78;;;8.80;99.90;;;;;;4945315;28;20577;-50
2022/01/02 18:06:56;;;;;;;13.57;4.00;;;8.70;99.90;;;;;;4946097;28;20367;-47
2022/01/02 18:09:29;;;;;;;19.45;4.07;;;8.80;99.90;;;;;;4946066;28;20054;-48
2022/01/02 18:11:55;;;;;;;16.92;3.45;;;8.80;99.90;;;;;;4946731;28;20051;-47
2022/01/02 18:14:22;;;;;;;17.48;3.40;;;8.80;99.90;;;;;;4946935;28;20086;-48
2022/01/02 18:16:48;;;;;;;14.68;3.75;;;8.70;99.90;;;;;;4945838;28;20822;-47
2022/01/02 18:19:16;;;;;;;18.30;3.78;;;8.70;99.90;;;;;;4942461;28;20055;-48
2022/01/02 18:21:47;;;;;;;15.85;3.30;;;8.60;99.90;;;;;;4924789;29;20139;-48
2022/01/02 18:24:19;;;;;;;16.77;3.60;;;8.60;99.90;;;;;;4931491;29;20074;-47
2022/01/02 18:26:45;;;;;;;12.57;3.42;;;8.60;99.90;;;;;;4947302;29;20055;-51
2022/01/02 18:29:13;;;;;;;16.15;4.00;;;8.60;99.90;;;;;;4941245;28;20055;-46
2022/01/02 18:31:39;;;;;;;17.55;3.83;;;8.50;99.90;;;;;;4910765;29;20055;-47
2022/01/02 18:34:04;;;;;;;14.55;4.88;;;8.50;99.90;;;;;;4944208;28;20406;-47
2022/01/02 18:36:30;;;;;;;21.50;3.70;;;8.50;99.90;;;;;;4942779;29;20059;-47
2022/01/02 18:38:57;;;;;;;19.17;4.97;;;8.50;99.90;;;;;;4931529;29;20051;-47
2022/01/02 18:41:23;;;;;;;19.02;4.03;;;8.50;99.90;;;;;;4944711;28;20047;-47
2022/01/02 18:43:50;;;;;;;21.08;4.10;;;8.60;99.90;;;;;;4924497;29;20057;-47